sensor_id;sensor_type;location;lat;lon;timestamp;pressure;altitude;pressure_sealevel;temperature;humidity
43818;BME280;29868;47.360;18.984;2023-04-07T15:02:30;100296.69;;;7.44;100.00
43818;BME280;29868;47.360;18.984;2023-04-07T15:04:56;100292.50;;;7.47;100.00
43818;BME280;29868;47.360;18.984;2023-04-07T15:07:22;100285.97;;;7.30;100.00
43818;BME280;29868;47.360;18.984;2023-04-07T15:09:47;100291.97;;;7.29;100.00
43818;BME280;29868;47.360;18.984;2023-04-07T15:12:12;100295.22;;;7.22;100.00
43818;BME280;29868;47.360;18.984;2023-04-07T15:14:39;100296.97;;;7.23;100.00
43818;BME280;29868;47.360;18.984;2023-04-07T15:17:04;100293.69;;;7.28;100.00
43818;BME280;29868;47.360;18.984;2023-04-07T15:19:30;100288.66;;;7.33;100.00
43818;BME280;29868;47.360;18.984;2023-04-07T15:21:55;100294.47;;;7.26;100.00
43818;BME280;29868;47.360;18.984;2023-04-07T15:24:20;100296.22;;;7.27;100.00
43818;BME280;29868;47.360;18.984;2023-04-07T15:26:48;100290.47;;;7.05;100.00
43818;BME280;29868;47.360;18.984;2023-04-07T15:29:13;100288.69;;;7.04;100.00
43818;BME280;29868;47.360;18.984;2023-04-07T15:31:39;100290.72;;;7.15;100.00
43818;BME280;29868;47.360;18.984;2023-04-07T15:34:04;100289.75;;;7.11;100.00
43818;BME280;29868;47.360;18.984;2023-04-07T15:36:30;100291.34;;;7.06;100.00
43818;BME280;29868;47.360;18.984;2023-04-07T15:38:56;100292.97;;;7.02;100.00
43818;BME280;29868;47.360;18.984;2023-04-07T15:41:21;100300.25;;;6.87;100.00
43818;BME280;29868;47.360;18.984;2023-04-07T15:43:47;100300.25;;;6.87;100.00
43818;BME280;29868;47.360;18.984;2023-04-07T15:46:14;100302.09;;;6.91;100.00
43818;BME280;29868;47.360;18.984;2023-04-07T15:48:39;100300.59;;;6.99;100.00
43818;BME280;29868;47.360;18.984;2023-04-07T15:51:05;100295.09;;;6.87;100.00
43818;BME280;29868;47.360;18.984;2023-04-07T15:53:30;100298.00;;;6.98;100.00
43818;BME280;29868;47.360;18.984;2023-04-07T15:55:56;100301.25;;;6.92;100.00
43818;BME280;29868;47.360;18.984;2023-04-07T15:58:21;100309.84;;;6.91;100.00
43818;BME280;29868;47.360;18.984;2023-04-07T16:00:46;100309.72;;;6.87;100.00
43818;BME280;29868;47.360;18.984;2023-04-07T16:03:12;100307.06;;;6.85;100.00
43818;BME280;29868;47.360;18.984;2023-04-07T16:05:37;100300.13;;;6.82;100.00
43818;BME280;29868;47.360;18.984;2023-04-07T16:08:03;100298.41;;;6.83;100.00
43818;BME280;29868;47.360;18.984;2023-04-07T16:10:28;100302.84;;;6.87;100.00
43818;BME280;29868;47.360;18.984;2023-04-07T16:12:54;100296.72;;;6.83;100.00
43818;BME280;29868;47.360;18.984;2023-04-07T16:15:19;100300.19;;;6.86;100.00
43818;BME280;29868;47.360;18.984;2023-04-07T16:17:46;100307.16;;;6.88;100.00
43818;BME280;29868;47.360;18.984;2023-04-07T16:20:12;100312.22;;;6.85;100.00
43818;BME280;29868;47.360;18.984;2023-04-07T16:22:46;100312.00;;;6.77;100.00
43818;BME280;29868;47.360;18.984;2023-04-07T16:25:15;100317.22;;;6.79;100.00
43818;BME280;29868;47.360;18.984;2023-04-07T16:27:41;100316.03;;;6.68;100.00
43818;BME280;29868;47.360;18.984;2023-04-07T16:30:08;100318.41;;;6.62;100.00
43818;BME280;29868;47.360;18.984;2023-04-07T16:32:35;100320.47;;;6.72;100.00
43818;BME280;29868;47.360;18.984;2023-04-07T16:35:01;100324.31;;;6.57;100.00
43818;BME280;29868;47.360;18.984;2023-04-07T16:37:26;100331.84;;;6.51;100.00
43818;BME280;29868;47.360;18.984;2023-04-07T16:39:58;100329.13;;;6.47;100.00
43818;BME280;29868;47.360;18.984;2023-04-07T16:42:24;100327.97;;;6.37;100.00
43818;BME280;29868;47.360;18.984;2023-04-07T16:44:53;100326.16;;;6.34;100.00
43818;BME280;29868;47.360;18.984;2023-04-07T16:47:19;100329.50;;;6.32;100.00
43818;BME280;29868;47.360;18.984;2023-04-07T16:49:44;100330.59;;;6.39;100.00
43818;BME280;29868;47.360;18.984;2023-04-07T16:52:10;100336.44;;;6.33;100.00
43818;BME280;29868;47.360;18.984;2023-04-07T16:54:35;100329.75;;;6.40;100.00
43818;BME280;29868;47.360;18.984;2023-04-07T16:57:01;100331.56;;;6.42;100.00
43818;BME280;29868;47.360;18.984;2023-04-07T16:59:26;100324.66;;;6.41;100.00
43818;BME280;29868;47.360;18.984;2023-04-07T17:01:52;100328.59;;;6.30;100.00
43818;BME280;29868;47.360;18.984;2023-04-07T17:04:17;100332.16;;;6.33;100.00
43818;BME280;29868;47.360;18.984;2023-04-07T17:06:43;100340.53;;;6.26;100.00
43818;BME280;29868;47.360;18.984;2023-04-07T17:09:08;100339.75;;;6.29;100.00
43818;BME280;29868;47.360;18.984;2023-04-07T17:11:36;100345.53;;;6.22;100.00
43818;BME280;29868;47.360;18.984;2023-04-07T17:14:02;100349.00;;;6.22;100.00
43818;BME280;29868;47.360;18.984;2023-04-07T17:16:27;100346.31;;;6.19;100.00
43818;BME280;29868;47.360;18.984;2023-04-07T17:18:52;100348.25;;;6.26;100.00
43818;BME280;29868;47.360;18.984;2023-04-07T17:21:18;100347.25;;;6.21;100.00
43818;BME280;29868;47.360;18.984;2023-04-07T17:23:43;100349.81;;;6.21;100.00
43818;BME280;29868;47.360;18.984;2023-04-07T17:26:09;100348.63;;;6.12;100.00
43818;BME280;29868;47.360;18.984;2023-04-07T17:28:35;100356.00;;;6.26;100.00
43818;BME280;29868;47.360;18.984;2023-04-07T17:31:00;100359.50;;;6.28;100.00
43818;BME280;29868;47.360;18.984;2023-04-07T17:33:27;100354.34;;;6.28;100.00
43818;BME280;29868;47.360;18.984;2023-04-07T17:35:52;100366.94;;;6.19;100.00
43818;BME280;29868;47.360;18.984;2023-04-07T17:38:17;100359.34;;;6.24;100.00
43818;BME280;29868;47.360;18.984;2023-04-07T17:40:43;100376.31;;;6.17;100.00
43818;BME280;29868;47.360;18.984;2023-04-07T17:43:08;100375.88;;;6.29;100.00
43818;BME280;29868;47.360;18.984;2023-04-07T17:45:35;100376.38;;;6.44;100.00
43818;BME280;29868;47.360;18.984;2023-04-07T17:48:01;100381.19;;;6.33;100.00
43818;BME280;29868;47.360;18.984;2023-04-07T17:50:28;100381.09;;;6.32;100.00
43818;BME280;29868;47.360;18.984;2023-04-07T17:52:53;100385.34;;;6.30;100.00
43818;BME280;29868;47.360;18.984;2023-04-07T17:55:19;100397.13;;;6.22;100.00
43818;BME280;29868;47.360;18.984;2023-04-07T17:57:44;100394.38;;;6.17;100.00
43818;BME280;29868;47.360;18.984;2023-04-07T18:00:10;100397.03;;;6.19;100.00
43818;BME280;29868;47.360;18.984;2023-04-07T18:02:35;100404.66;;;6.16;100.00
43818;BME280;29868;47.360;18.984;2023-04-07T18:05:05;100400.00;;;6.05;100.00
43818;BME280;29868;47.360;18.984;2023-04-07T18:07:31;100407.66;;;6.02;100.00
43818;BME280;29868;47.360;18.984;2023-04-07T18:09:56;100403.25;;;6.00;100.00
43818;BME280;29868;47.360;18.984;2023-04-07T18:12:22;100404.72;;;5.93;100.00
43818;BME280;29868;47.360;18.984;2023-04-07T18:14:47;100411.81;;;5.99;100.00
43818;BME280;29868;47.360;18.984;2023-04-07T18:17:13;100418.16;;;6.08;100.00
43818;BME280;29868;47.360;18.984;2023-04-07T18:19:39;100420.53;;;6.02;100.00
43818;BME280;29868;47.360;18.984;2023-04-07T18:22:04;100427.84;;;5.92;100.00
43818;BME280;29868;47.360;18.984;2023-04-07T18:24:30;100429.78;;;5.97;100.00
43818;BME280;29868;47.360;18.984;2023-04-07T18:26:57;100427.22;;;5.97;100.00
43818;BME280;29868;47.360;18.984;2023-04-07T18:29:23;100429.50;;;5.90;100.00
43818;BME280;29868;47.360;18.984;2023-04-07T18:31:48;100432.63;;;5.81;100.00
43818;BME280;29868;47.360;18.984;2023-04-07T18:34:14;100434.59;;;5.88;100.00
43818;BME280;29868;47.360;18.984;2023-04-07T18:36:39;100432.75;;;5.84;100.00
43818;BME280;29868;47.360;18.984;2023-04-07T18:39:05;100444.81;;;5.85;100.00
43818;BME280;29868;47.360;18.984;2023-04-07T18:41:31;100437.06;;;5.85;100.00
43818;BME280;29868;47.360;18.984;2023-04-07T18:43:56;100439.53;;;5.82;100.00
43818;BME280;29868;47.360;18.984;2023-04-07T18:46:22;100443.94;;;5.84;100.00
43818;BME280;29868;47.360;18.984;2023-04-07T18:48:47;100449.91;;;5.83;100.00
43818;BME280;29868;47.360;18.984;2023-04-07T18:51:13;100450.50;;;5.76;100.00
43818;BME280;29868;47.360;18.984;2023-04-07T18:53:38;100450.72;;;5.82;100.00
43818;BME280;29868;47.360;18.984;2023-04-07T18:56:04;100446.34;;;5.80;100.00
43818;BME280;29868;47.360;18.984;2023-04-07T18:58:29;100451.44;;;5.78;100.00
43818;BME280;29868;47.360;18.984;2023-04-07T19:00:55;100454.88;;;5.79;100.00
43818;BME280;29868;47.360;18.984;2023-04-07T19:03:21;100451.31;;;5.75;100.00
43818;BME280;29868;47.360;18.984;2023-04-07T19:05:47;100460.16;;;5.82;100.00
43818;BME280;29868;47.360;18.984;2023-04-07T19:08:13;100457.38;;;5.76;100.00
43818;BME280;29868;47.360;18.984;2023-04-07T19:10:38;100462.56;;;5.77;100.00
43818;BME280;29868;47.360;18.984;2023-04-07T19:13:04;100453.69;;;5.69;100.00
43818;BME280;29868;47.360;18.984;2023-04-07T19:15:30;100458.97;;;5.72;100.00
43818;BME280;29868;47.360;18.984;2023-04-07T19:17:59;100457.13;;;5.70;100.00
43818;BME280;29868;47.360;18.984;2023-04-07T19:20:26;100455.28;;;5.66;100.00
43818;BME280;29868;47.360;18.984;2023-04-07T19:22:51;100452.84;;;5.70;100.00
43818;BME280;29868;47.360;18.984;2023-04-07T19:25:17;100451.03;;;5.68;100.00
43818;BME280;29868;47.360;18.984;2023-04-07T19:27:42;100456.91;;;5.64;100.00
43818;BME280;29868;47.360;18.984;2023-04-07T19:30:08;100455.38;;;5.69;100.00
43818;BME280;29868;47.360;18.984;2023-04-07T19:32:34;100457.78;;;5.64;100.00
43818;BME280;29868;47.360;18.984;2023-04-07T19:35:00;100456.09;;;5.65;100.00
43818;BME280;29868;47.360;18.984;2023-04-07T19:37:26;100455.97;;;5.61;100.00
43818;BME280;29868;47.360;18.984;2023-04-07T19:39:51;100461.66;;;5.53;100.00
43818;BME280;29868;47.360;18.984;2023-04-07T19:42:16;100460.72;;;5.51;100.00
43818;BME280;29868;47.360;18.984;2023-04-07T19:44:42;100464.00;;;5.47;100.00
43818;BME280;29868;47.360;18.984;2023-04-07T19:47:07;100469.88;;;5.43;100.00
43818;BME280;29868;47.360;18.984;2023-04-07T19:49:33;100472.38;;;5.41;100.00
43818;BME280;29868;47.360;18.984;2023-04-07T19:51:58;100473.91;;;5.36;100.00
43818;BME280;29868;47.360;18.984;2023-04-07T19:54:24;100470.75;;;5.43;100.00
43818;BME280;29868;47.360;18.984;2023-04-07T19:56:49;100473.59;;;5.51;100.00
43818;BME280;29868;47.360;18.984;2023-04-07T19:59:14;100477.75;;;5.47;100.00
43818;BME280;29868;47.360;18.984;2023-04-07T20:01:40;100475.19;;;5.47;100.00
43818;BME280;29868;47.360;18.984;2023-04-07T20:04:05;100476.03;;;5.46;100.00
43818;BME280;29868;47.360;18.984;2023-04-07T20:06:31;100473.25;;;5.42;100.00
43818;BME280;29868;47.360;18.984;2023-04-07T20:09:00;100473.31;;;5.43;100.00
43818;BME280;29868;47.360;18.984;2023-04-07T20:11:26;100476.34;;;5.33;100.00
43818;BME280;29868;47.360;18.984;2023-04-07T20:13:51;100479.72;;;5.30;100.00
43818;BME280;29868;47.360;18.984;2023-04-07T20:16:16;100476.34;;;5.33;100.00
43818;BME280;29868;47.360;18.984;2023-04-07T20:18:42;100473.78;;;5.33;100.00
43818;BME280;29868;47.360;18.984;2023-04-07T20:21:07;100476.06;;;5.25;100.00
43818;BME280;29868;47.360;18.984;2023-04-07T20:23:34;100478.19;;;5.35;100.00
43818;BME280;29868;47.360;18.984;2023-04-07T20:26:00;100476.06;;;5.25;100.00
43818;BME280;29868;47.360;18.984;2023-04-07T20:28:29;100472.03;;;5.32;100.00
43818;BME280;29868;47.360;18.984;2023-04-07T20:30:54;100469.47;;;5.32;100.00
43818;BME280;29868;47.360;18.984;2023-04-07T20:33:20;100476.94;;;5.26;100.00
43818;BME280;29868;47.360;18.984;2023-04-07T20:35:45;100482.88;;;5.23;100.00
43818;BME280;29868;47.360;18.984;2023-04-07T20:38:11;100479.41;;;5.23;100.00
43818;BME280;29868;47.360;18.984;2023-04-07T20:40:37;100478.88;;;5.09;100.00
43818;BME280;29868;47.360;18.984;2023-04-07T20:43:03;100480.63;;;5.10;100.00
43818;BME280;29868;47.360;18.984;2023-04-07T20:45:30;100486.81;;;5.15;100.00
43818;BME280;29868;47.360;18.984;2023-04-07T20:47:55;100480.22;;;5.22;100.00
43818;BME280;29868;47.360;18.984;2023-04-07T20:50:21;100487.75;;;5.17;100.00
43818;BME280;29868;47.360;18.984;2023-04-07T20:52:47;100486.63;;;5.10;100.00
43818;BME280;29868;47.360;18.984;2023-04-07T20:55:12;100489.22;;;5.10;100.00
43818;BME280;29868;47.360;18.984;2023-04-07T20:57:38;100487.28;;;5.05;100.00
43818;BME280;29868;47.360;18.984;2023-04-07T21:00:04;100484.41;;;4.97;100.00
43818;BME280;29868;47.360;18.984;2023-04-07T21:02:31;100495.94;;;5.07;100.00
43818;BME280;29868;47.360;18.984;2023-04-07T21:04:56;100482.75;;;4.99;100.00
43818;BME280;29868;47.360;18.984;2023-04-07T21:07:22;100486.91;;;4.96;100.00
43818;BME280;29868;47.360;18.984;2023-04-07T21:09:47;100485.81;;;4.89;100.00
43818;BME280;29868;47.360;18.984;2023-04-07T21:12:13;100486.19;;;5.00;100.00
43818;BME280;29868;47.360;18.984;2023-04-07T21:14:38;100484.78;;;4.85;100.00
43818;BME280;29868;47.360;18.984;2023-04-07T21:17:03;100483.84;;;4.83;100.00
43818;BME280;29868;47.360;18.984;2023-04-07T21:19:29;100482.16;;;4.84;100.00
43818;BME280;29868;47.360;18.984;2023-04-07T21:21:56;100484.03;;;4.88;100.00
43818;BME280;29868;47.360;18.984;2023-04-07T21:24:21;100484.03;;;4.88;100.00
43818;BME280;29868;47.360;18.984;2023-04-07T21:26:47;100487.47;;;4.88;100.00
43818;BME280;29868;47.360;18.984;2023-04-07T21:29:12;100486.59;;;4.88;100.00
43818;BME280;29868;47.360;18.984;2023-04-07T21:31:38;100481.34;;;4.85;100.00
43818;BME280;29868;47.360;18.984;2023-04-07T21:34:03;100485.28;;;4.77;100.00
43818;BME280;29868;47.360;18.984;2023-04-07T21:36:29;100485.78;;;4.68;100.00
43818;BME280;29868;47.360;18.984;2023-04-07T21:38:56;100488.19;;;4.63;100.00
43818;BME280;29868;47.360;18.984;2023-04-07T21:41:22;100487.31;;;4.63;100.00
43818;BME280;29868;47.360;18.984;2023-04-07T21:43:47;100487.44;;;4.66;100.00
43818;BME280;29868;47.360;18.984;2023-04-07T21:46:13;100492.78;;;4.71;100.00
43818;BME280;29868;47.360;18.984;2023-04-07T21:48:38;100495.72;;;4.59;100.00
43818;BME280;29868;47.360;18.984;2023-04-07T21:51:04;100494.00;;;4.59;100.00
43818;BME280;29868;47.360;18.984;2023-04-07T21:53:29;100496.47;;;4.56;100.00
43818;BME280;29868;47.360;18.984;2023-04-07T21:55:56;100493.94;;;4.58;100.00
43818;BME280;29868;47.360;18.984;2023-04-07T21:58:21;100493.00;;;4.56;100.00
43818;BME280;29868;47.360;18.984;2023-04-07T22:00:47;100494.72;;;4.55;100.00
43818;BME280;29868;47.360;18.984;2023-04-07T22:03:14;100496.03;;;4.67;100.00
43818;BME280;29868;47.360;18.984;2023-04-07T22:05:40;100500.00;;;4.58;100.00
43818;BME280;29868;47.360;18.984;2023-04-07T22:08:06;100498.22;;;4.57;100.00
43818;BME280;29868;47.360;18.984;2023-04-07T22:10:31;100504.22;;;4.58;100.00
43818;BME280;29868;47.360;18.984;2023-04-07T22:12:57;100505.22;;;4.61;100.00
43818;BME280;29868;47.360;18.984;2023-04-07T22:15:22;100507.47;;;4.54;100.00
43818;BME280;29868;47.360;18.984;2023-04-07T22:17:48;100511.16;;;4.59;100.00
43818;BME280;29868;47.360;18.984;2023-04-07T22:20:14;100507.00;;;4.62;100.00
43818;BME280;29868;47.360;18.984;2023-04-07T22:22:40;100507.69;;;4.58;100.00
43818;BME280;29868;47.360;18.984;2023-04-07T22:25:05;100508.50;;;4.57;100.00
43818;BME280;29868;47.360;18.984;2023-04-07T22:27:31;100506.44;;;4.49;100.00
43818;BME280;29868;47.360;18.984;2023-04-07T22:29:56;100508.25;;;4.51;100.00
43818;BME280;29868;47.360;18.984;2023-04-07T22:32:22;100513.53;;;4.35;100.00
43818;BME280;29868;47.360;18.984;2023-04-07T22:34:47;100507.72;;;4.39;100.00
43818;BME280;29868;47.360;18.984;2023-04-07T22:37:13;100512.63;;;4.33;100.00
43818;BME280;29868;47.360;18.984;2023-04-07T22:39:38;100506.03;;;4.39;100.00
43818;BME280;29868;47.360;18.984;2023-04-07T22:42:04;100496.69;;;4.42;100.00
43818;BME280;29868;47.360;18.984;2023-04-07T22:44:29;100505.03;;;4.36;100.00
43818;BME280;29868;47.360;18.984;2023-04-07T22:46:55;100507.03;;;4.43;100.00
43818;BME280;29868;47.360;18.984;2023-04-07T22:49:21;100507.03;;;4.43;100.00
43818;BME280;29868;47.360;18.984;2023-04-07T22:51:47;100506.09;;;4.41;100.00
43818;BME280;29868;47.360;18.984;2023-04-07T22:54:15;100508.63;;;4.39;100.00
43818;BME280;29868;47.360;18.984;2023-04-07T22:56:41;100504.34;;;4.40;100.00
43818;BME280;29868;47.360;18.984;2023-04-07T22:59:06;100514.56;;;4.38;100.00
43818;BME280;29868;47.360;18.984;2023-04-07T23:01:32;100516.78;;;4.31;100.00
43818;BME280;29868;47.360;18.984;2023-04-07T23:03:57;100515.63;;;4.24;100.00
43818;BME280;29868;47.360;18.984;2023-04-07T23:06:23;100518.09;;;4.21;100.00
43818;BME280;29868;47.360;18.984;2023-04-07T23:08:49;100514.22;;;4.31;100.00
43818;BME280;29868;47.360;18.984;2023-04-07T23:11:14;100513.69;;;4.19;100.00
43818;BME280;29868;47.360;18.984;2023-04-07T23:13:40;100513.84;;;4.22;100.00
43818;BME280;29868;47.360;18.984;2023-04-07T23:16:10;100510.50;;;4.05;100.00
43818;BME280;29868;47.360;18.984;2023-04-07T23:18:35;100509.19;;;4.13;100.00
43818;BME280;29868;47.360;18.984;2023-04-07T23:21:01;100512.50;;;4.10;100.00
43818;BME280;29868;47.360;18.984;2023-04-07T23:23:26;100509.09;;;4.11;100.00
43818;BME280;29868;47.360;18.984;2023-04-07T23:25:52;100513.50;;;4.14;100.00
43818;BME280;29868;47.360;18.984;2023-04-07T23:28:17;100509.03;;;4.10;100.00
43818;BME280;29868;47.360;18.984;2023-04-07T23:30:42;100508.41;;;4.15;100.00
43818;BME280;29868;47.360;18.984;2023-04-07T23:33:08;100516.31;;;4.20;100.00
43818;BME280;29868;47.360;18.984;2023-04-07T23:35:33;100519.59;;;3.97;100.00
43818;BME280;29868;47.360;18.984;2023-04-07T23:37:59;100519.13;;;4.05;100.00
43818;BME280;29868;47.360;18.984;2023-04-07T23:40:24;100521.03;;;4.09;100.00
43818;BME280;29868;47.360;18.984;2023-04-07T23:42:50;100520.53;;;4.18;100.00
43818;BME280;29868;47.360;18.984;2023-04-07T23:45:16;100517.09;;;4.18;100.00
43818;BME280;29868;47.360;18.984;2023-04-07T23:47:41;100516.56;;;4.25;100.00
43818;BME280;29868;47.360;18.984;2023-04-07T23:50:07;100517.81;;;4.15;100.00
43818;BME280;29868;47.360;18.984;2023-04-07T23:52:32;100516.22;;;4.17;100.00
43818;BME280;29868;47.360;18.984;2023-04-07T23:54:58;100520.59;;;4.20;100.00
43818;BME280;29868;47.360;18.984;2023-04-07T23:57:23;100515.59;;;4.03;100.00
43818;BME280;29868;47.360;18.984;2023-04-07T23:59:49;100516.94;;;4.14;100.00
